Time;durP1;ratioP1;P1;durP2;ratioP2;P2;SDS_P1;SDS_P2;PMS_P1;PMS_P2;Temp;Humidity;BMP_temperature;BMP_pressure;BME280_temperature;BME280_humidity;BME280_pressure;Samples;Min_cycle;Max_cycle;Signal;HPM_P1;HPM_P2
2022/06/28 00:01:21;;;;;;;5.22;3.40;;;;;;;14.31;74.64;101954.50;5061798;28;20055;-77
2022/06/28 00:03:47;;;;;;;4.07;3.22;;;;;;;14.24;74.70;101952.94;5064683;28;20040;-78
2022/06/28 00:06:12;;;;;;;4.82;3.17;;;;;;;14.21;74.61;101958.22;5065359;28;20108;-78
2022/06/28 00:08:38;;;;;;;5.43;3.15;;;;;;;14.17;74.56;101956.59;5067048;28;20029;-78
2022/06/28 00:11:04;;;;;;;4.93;3.15;;;;;;;14.11;74.62;101961.06;5064177;28;20480;-78
2022/06/28 00:13:29;;;;;;;5.07;3.08;;;;;;;14.06;74.95;101962.91;5068600;28;20383;-78
2022/06/28 00:16:07;;;;;;;5.45;3.08;;;;;;;14.03;75.02;101965.59;5061196;28;20032;-78
2022/06/28 00:18:35;;;;;;;3.65;3.10;;;;;;;14.01;74.67;101956.91;5064753;28;20116;-78
2022/06/28 00:21:01;;;;;;;3.55;2.95;;;;;;;13.98;74.74;101954.41;5065158;28;20052;-78
2022/06/28 00:23:28;;;;;;;3.65;2.97;;;;;;;13.93;74.92;101957.09;5066932;28;20020;-78
2022/06/28 00:25:53;;;;;;;4.03;3.08;;;;;;;13.92;75.20;101967.59;5067761;28;20016;-78
2022/06/28 00:28:18;;;;;;;4.25;3.30;;;;;;;13.90;74.99;101970.25;5060122;28;20107;-78
2022/06/28 00:30:44;;;;;;;4.25;3.45;;;;;;;13.88;75.15;101968.56;5062273;28;20098;-77
2022/06/28 00:33:09;;;;;;;3.88;3.25;;;;;;;13.85;75.11;101960.75;5066784;28;20021;-78
2022/06/28 00:35:34;;;;;;;4.80;3.42;;;;;;;13.82;75.20;101961.69;5067086;28;20035;-78
2022/06/28 00:38:00;;;;;;;4.95;3.00;;;;;;;13.78;75.39;101967.88;5063801;28;20108;-78
2022/06/28 00:40:25;;;;;;;4.05;2.85;;;;;;;13.74;75.59;101967.09;5063947;28;20029;-77
2022/06/28 00:42:51;;;;;;;3.45;3.10;;;;;;;13.70;75.87;101964.59;5067391;28;20031;-77
2022/06/28 00:45:17;;;;;;;3.30;2.90;;;;;;;13.67;75.93;101962.88;5063477;28;20487;-78
2022/06/28 00:47:42;;;;;;;4.07;3.00;;;;;;;13.65;76.16;101969.91;5065946;28;20093;-78
2022/06/28 00:50:08;;;;;;;4.10;2.80;;;;;;;13.62;75.86;101965.59;5066278;28;20028;-78
2022/06/28 00:52:33;;;;;;;3.72;3.00;;;;;;;13.59;76.41;101972.66;5066852;28;20078;-78
2022/06/28 00:54:58;;;;;;;4.47;3.50;;;;;;;13.58;76.87;101970.91;5067190;28;20051;-77
2022/06/28 00:57:24;;;;;;;3.90;3.17;;;;;;;13.60;77.45;101969.13;5064473;28;20032;-77
2022/06/28 00:59:49;;;;;;;5.93;3.50;;;;;;;13.62;77.35;101972.59;5066877;28;20027;-78
2022/06/28 01:02:15;;;;;;;4.85;3.58;;;;;;;13.66;77.41;101976.88;5069567;28;20025;-78
2022/06/28 01:04:40;;;;;;;3.97;2.88;;;;;;;13.69;77.26;101971.56;5067329;28;20055;-77
2022/06/28 01:07:06;;;;;;;4.95;3.13;;;;;;;13.71;77.21;101971.53;5068530;28;20033;-78
2022/06/28 01:09:32;;;;;;;5.70;3.38;;;;;;;13.72;77.19;101974.09;5068548;28;20032;-77
2022/06/28 01:11:57;;;;;;;4.32;2.95;;;;;;;13.71;76.78;101969.78;5070439;28;20025;-78
2022/06/28 01:14:23;;;;;;;4.15;2.97;;;;;;;13.73;77.11;101973.22;5068888;28;20032;-78
2022/06/28 01:16:49;;;;;;;3.78;2.88;;;;;;;13.74;76.95;101980.19;5067202;28;20046;-77
2022/06/28 01:19:16;;;;;;;3.97;3.00;;;;;;;13.74;76.82;101974.09;5064844;28;20119;-77
2022/06/28 01:21:42;;;;;;;3.95;3.00;;;;;;;13.74;76.67;101982.78;5068176;28;20047;-77
2022/06/28 01:24:08;;;;;;;5.70;2.80;;;;;;;13.73;76.55;101977.59;5067746;28;20028;-77
2022/06/28 01:26:34;;;;;;;3.58;2.90;;;;;;;13.72;76.35;101979.34;5065096;28;20034;-78
2022/06/28 01:29:00;;;;;;;4.80;2.80;;;;;;;13.71;76.76;101980.22;5065848;28;20054;-77
2022/06/28 01:31:25;;;;;;;4.95;2.75;;;;;;;13.72;76.80;101983.72;5067977;28;20093;-78
2022/06/28 01:33:52;;;;;;;3.85;2.80;;;;;;;13.71;76.62;101990.69;5068628;28;20388;-78
2022/06/28 01:36:18;;;;;;;4.40;2.75;;;;;;;13.70;76.60;101982.88;5068828;28;20033;-78
2022/06/28 01:38:43;;;;;;;4.55;2.88;;;;;;;13.70;76.81;101993.34;5064987;28;20044;-78
2022/06/28 01:41:32;;;;;;;3.92;2.88;;;;;;;13.68;76.26;101989.91;5068395;28;20024;-78
2022/06/28 01:43:56;;;;;;;3.67;2.55;;;;;;;13.65;76.45;101991.69;5069164;28;20589;-77
2022/06/28 01:46:22;;;;;;;3.50;2.75;;;;;;;13.64;76.81;101989.13;5070365;28;20040;-77
2022/06/28 01:48:47;;;;;;;5.05;3.10;;;;;;;13.60;76.65;101987.44;5066652;28;20032;-77
2022/06/28 01:51:12;;;;;;;4.05;2.90;;;;;;;13.58;77.01;101986.59;5070490;28;20029;-78
2022/06/28 01:53:37;;;;;;;4.88;3.10;;;;;;;13.56;76.95;101991.00;5068612;28;20024;-77
2022/06/28 01:56:03;;;;;;;4.40;2.67;;;;;;;13.55;76.75;101984.94;5068243;28;20032;-77
2022/06/28 01:58:28;;;;;;;4.70;3.05;;;;;;;13.53;77.01;101994.56;5065407;28;20037;-77
2022/06/28 02:00:53;;;;;;;6.40;3.20;;;;;;;13.51;76.89;101991.94;5067344;28;20471;-78
2022/06/28 02:03:19;;;;;;;4.18;3.00;;;;;;;13.50;76.88;101994.59;5066863;28;20056;-78
2022/06/28 02:05:44;;;;;;;7.15;3.17;;;;;;;13.46;76.89;102001.66;5066391;28;20299;-77
2022/06/28 02:08:10;;;;;;;4.25;3.10;;;;;;;13.43;76.83;101999.09;5065061;28;20023;-78
2022/06/28 02:10:35;;;;;;;5.80;3.03;;;;;;;13.41;76.83;102003.47;5065582;28;20061;-77
2022/06/28 02:13:00;;;;;;;3.88;3.10;;;;;;;13.41;76.70;102006.09;5068858;28;20238;-77
2022/06/28 02:15:25;;;;;;;6.03;3.17;;;;;;;13.39;77.00;102004.38;5066853;28;20116;-78
2022/06/28 02:17:51;;;;;;;3.83;2.50;;;;;;;13.36;77.16;102013.13;5067878;28;20043;-77
2022/06/28 02:20:16;;;;;;;5.20;2.90;;;;;;;13.36;76.81;102013.13;5067600;28;20048;-78
2022/06/28 02:22:41;;;;;;;4.93;2.70;;;;;;;13.34;76.96;102014.91;5067914;28;20036;-78
2022/06/28 02:25:07;;;;;;;3.85;3.00;;;;;;;13.32;77.40;102019.31;5073434;28;20410;-77
2022/06/28 02:27:32;;;;;;;4.63;3.00;;;;;;;13.29;77.31;102014.16;5070615;28;20024;-77
2022/06/28 02:29:58;;;;;;;5.07;3.20;;;;;;;13.28;77.39;102022.88;5064965;28;20035;-78
2022/06/28 02:32:23;;;;;;;4.93;3.08;;;;;;;13.25;77.14;102017.69;5064208;28;20036;-77
2022/06/28 02:40:22;;;;;;;5.13;3.05;;;;;;;13.18;77.39;102022.16;5068517;28;20067;-78
2022/06/28 02:42:52;;;;;;;3.45;2.90;;;;;;;13.16;77.19;102022.19;5063249;28;20166;-78
2022/06/28 02:45:18;;;;;;;4.25;2.78;;;;;;;13.14;77.63;102029.22;5064259;28;20028;-77
2022/06/28 02:47:44;;;;;;;4.85;3.35;;;;;;;13.12;77.53;102030.09;5066434;28;20017;-77
2022/06/28 02:50:10;;;;;;;7.28;3.00;;;;;;;13.11;77.74;102041.44;5066181;28;20434;-77
2022/06/28 02:52:36;;;;;;;4.13;2.83;;;;;;;13.10;77.50;102047.56;5066475;28;20385;-77
2022/06/28 02:55:01;;;;;;;5.15;3.00;;;;;;;13.06;77.60;102052.81;5066243;28;20605;-78
2022/06/28 02:57:27;;;;;;;4.20;2.70;;;;;;;13.04;77.65;102056.38;5068634;28;20428;-78
2022/06/28 02:59:52;;;;;;;4.80;3.17;;;;;;;13.03;77.66;102062.47;5066358;28;20013;-78
2022/06/28 03:02:17;;;;;;;5.75;2.92;;;;;;;13.01;77.82;102065.13;5068159;28;20073;-77
2022/06/28 03:04:42;;;;;;;4.15;2.88;;;;;;;12.99;77.98;102058.19;5067305;28;20028;-77
2022/06/28 03:07:08;;;;;;;5.95;2.85;;;;;;;12.97;77.93;102062.59;5068039;28;20099;-77
2022/06/28 03:09:33;;;;;;;4.07;2.72;;;;;;;12.97;77.62;102057.38;5062597;28;20371;-77
2022/06/28 03:11:58;;;;;;;3.80;3.25;;;;;;;12.97;77.50;102065.22;5067051;28;20055;-77
2022/06/28 03:14:24;;;;;;;4.10;2.80;;;;;;;12.97;77.71;102059.97;5065576;28;20025;-77
2022/06/28 03:16:49;;;;;;;4.85;2.72;;;;;;;12.94;77.69;102065.25;5067258;28;20064;-78
2022/06/28 03:19:14;;;;;;;6.28;3.08;;;;;;;12.93;77.79;102071.34;5065239;28;20403;-77
2022/06/28 03:21:39;;;;;;;6.68;2.90;;;;;;;12.91;77.83;102071.38;5065353;28;20033;-77
2022/06/28 03:24:05;;;;;;;6.28;2.80;;;;;;;12.89;77.57;102076.63;5063002;28;21619;-77
2022/06/28 03:26:30;;;;;;;6.88;2.90;;;;;;;12.86;77.67;102079.28;5066049;28;20032;-77
2022/06/28 03:28:56;;;;;;;5.40;2.75;;;;;;;12.85;78.01;102072.31;5064435;28;20103;-77
2022/06/28 03:31:21;;;;;;;4.45;2.97;;;;;;;12.83;77.62;102071.47;5067256;28;20044;-77
2022/06/28 03:33:46;;;;;;;7.45;2.90;;;;;;;12.82;77.48;102074.97;5063674;28;20020;-77
2022/06/28 03:36:12;;;;;;;5.97;3.25;;;;;;;12.81;77.90;102072.41;5065822;28;20441;-77
2022/06/28 03:38:37;;;;;;;6.30;2.90;;;;;;;12.81;77.99;102081.09;5065077;28;20538;-77
2022/06/28 03:41:02;;;;;;;7.65;2.92;;;;;;;12.82;77.66;102082.81;5062222;28;20021;-78
2022/06/28 03:43:28;;;;;;;5.80;2.78;;;;;;;12.81;77.74;102083.69;5062039;28;20040;-77
2022/06/28 03:45:53;;;;;;;4.95;2.70;;;;;;;12.80;77.69;102079.41;5065799;28;20028;-77
2022/06/28 03:48:18;;;;;;;6.00;2.60;;;;;;;12.82;77.57;102079.34;5064150;28;20024;-77
2022/06/28 03:50:43;;;;;;;4.18;2.55;;;;;;;12.80;77.69;102079.41;5065043;28;20032;-78
2022/06/28 03:53:09;;;;;;;3.80;2.60;;;;;;;12.80;77.40;102073.28;5064364;28;20031;-77
2022/06/28 03:55:34;;;;;;;6.45;3.20;;;;;;;12.79;77.73;102077.66;5065988;28;20071;-77
2022/06/28 03:57:59;;;;;;;4.10;3.00;;;;;;;12.80;77.51;102084.63;5065412;28;20396;-77
2022/06/28 04:00:24;;;;;;;4.63;2.58;;;;;;;12.80;77.20;102089.84;5058620;28;20024;-77
2022/06/28 04:02:50;;;;;;;4.45;2.80;;;;;;;12.81;77.34;102091.53;5068741;28;20505;-77
2022/06/28 04:05:15;;;;;;;5.47;3.22;;;;;;;12.82;76.97;102085.44;5072445;28;20027;-78
2022/06/28 04:07:41;;;;;;;6.50;2.50;;;;;;;12.84;76.78;102093.25;5067604;28;20029;-77
2022/06/28 04:10:07;;;;;;;3.72;2.45;;;;;;;12.85;77.09;102088.00;5068350;28;20075;-77
2022/06/28 04:12:32;;;;;;;4.43;2.50;;;;;;;12.87;76.80;102088.84;5064243;28;20104;-77
2022/06/28 04:14:57;;;;;;;6.05;2.40;;;;;;;12.90;76.70;102086.19;5067859;28;20061;-78
2022/06/28 04:17:23;;;;;;;5.60;2.90;;;;;;;12.92;76.66;102094.00;5063201;28;20024;-78
2022/06/28 04:19:48;;;;;;;3.88;2.50;;;;;;;12.94;76.25;102091.38;5065663;28;20049;-77
2022/06/28 04:22:13;;;;;;;4.80;2.65;;;;;;;12.93;76.17;102097.47;5062249;28;20470;-78
2022/06/28 04:24:39;;;;;;;5.57;2.55;;;;;;;12.95;76.76;102100.94;5062123;28;20028;-77
2022/06/28 04:27:04;;;;;;;4.38;2.40;;;;;;;12.95;76.61;102104.41;5065416;28;20032;-78
2022/06/28 04:29:30;;;;;;;3.35;2.35;;;;;;;12.96;76.49;102089.59;5062835;28;20082;-77
2022/06/28 04:31:55;;;;;;;5.28;2.60;;;;;;;12.99;76.36;102092.13;5060019;28;20422;-77
2022/06/28 04:34:20;;;;;;;6.40;2.50;;;;;;;13.02;76.14;102095.59;5060964;28;20063;-77
2022/06/28 04:36:45;;;;;;;3.30;2.20;;;;;;;13.05;75.88;102097.28;5061751;28;20134;-77
2022/06/28 04:39:11;;;;;;;7.70;2.78;;;;;;;13.09;75.87;102105.91;5063441;28;20028;-77
2022/06/28 04:41:36;;;;;;;3.83;2.30;;;;;;;13.10;75.61;102092.84;5065306;28;20071;-77
2022/06/28 04:44:02;;;;;;;4.28;2.28;;;;;;;13.14;75.39;102091.91;5070669;28;20033;-77
2022/06/28 04:46:28;;;;;;;4.03;2.30;;;;;;;13.18;75.22;102100.56;5066491;28;20048;-78
2022/06/28 04:48:53;;;;;;;4.40;2.50;;;;;;;13.21;74.25;102096.13;5065155;28;20025;-77
2022/06/28 04:51:19;;;;;;;6.18;2.47;;;;;;;13.26;74.37;102097.81;5068813;28;20483;-77
2022/06/28 04:53:46;;;;;;;4.15;2.10;;;;;;;13.28;74.44;102101.28;5064889;28;20036;-78
2022/06/28 04:56:12;;;;;;;3.95;2.28;;;;;;;13.31;74.41;102101.22;5064855;28;20095;-78
2022/06/28 04:58:38;;;;;;;6.45;2.38;;;;;;;13.34;74.88;102103.75;5068002;28;20082;-77
2022/06/28 05:01:03;;;;;;;3.10;2.13;;;;;;;13.37;75.10;102103.72;5065878;28;20016;-77
2022/06/28 05:03:29;;;;;;;4.95;2.50;;;;;;;13.40;74.69;102106.31;5065375;28;20016;-77
2022/06/28 05:05:55;;;;;;;4.22;2.40;;;;;;;13.41;74.80;102108.03;5065476;28;20454;-78
2022/06/28 05:08:20;;;;;;;4.60;2.33;;;;;;;13.42;74.93;102096.69;5068255;28;20380;-77
2022/06/28 05:10:45;;;;;;;4.95;2.22;;;;;;;13.45;74.80;102099.28;5067580;28;20032;-77
2022/06/28 05:13:11;;;;;;;4.40;2.33;;;;;;;13.46;74.21;102106.22;5064558;28;20040;-78
2022/06/28 05:15:36;;;;;;;4.05;2.30;;;;;;;13.48;73.95;102099.22;5065113;28;20042;-78
2022/06/28 05:18:02;;;;;;;4.30;2.50;;;;;;;13.50;74.03;102105.25;5068119;28;20029;-78
2022/06/28 05:20:27;;;;;;;4.50;2.10;;;;;;;13.54;73.80;102107.81;5068422;28;20113;-77
2022/06/28 05:22:53;;;;;;;4.78;2.50;;;;;;;13.58;74.35;102105.13;5067509;28;20048;-78
2022/06/28 05:25:18;;;;;;;5.18;2.50;;;;;;;13.61;74.47;102104.22;5068164;28;20024;-78
2022/06/28 05:27:43;;;;;;;4.40;2.40;;;;;;;13.65;73.97;102100.66;5063343;28;20430;-78
2022/06/28 05:30:09;;;;;;;6.70;2.53;;;;;;;13.68;74.37;102099.72;5066935;28;20386;-77
2022/06/28 05:32:34;;;;;;;5.07;2.33;;;;;;;13.70;74.18;102093.56;5063573;28;20028;-78
2022/06/28 05:34:59;;;;;;;5.05;2.22;;;;;;;13.75;74.26;102098.75;5068378;28;20066;-78
2022/06/28 05:37:25;;;;;;;6.32;2.47;;;;;;;13.77;74.33;102095.19;5069148;28;20043;-78
2022/06/28 05:39:50;;;;;;;4.05;2.33;;;;;;;13.80;74.49;102097.75;5068116;28;20021;-78
2022/06/28 05:42:16;;;;;;;5.95;2.47;;;;;;;13.87;75.51;102092.38;5066516;28;20484;-77
2022/06/28 05:44:42;;;;;;;5.18;2.15;;;;;;;13.92;73.52;102094.00;5066567;28;20360;-78
2022/06/28 05:47:08;;;;;;;6.55;2.28;;;;;;;13.96;73.08;102092.22;5072802;28;20395;-78
2022/06/28 05:49:33;;;;;;;6.63;2.50;;;;;;;14.01;72.89;102094.75;5071317;28;20043;-78
2022/06/28 05:51:58;;;;;;;5.38;2.75;;;;;;;14.05;73.99;102088.56;5071583;28;20106;-78
2022/06/28 05:54:23;;;;;;;5.43;2.35;;;;;;;14.09;72.67;102088.47;5071687;28;20040;-77
2022/06/28 05:56:49;;;;;;;5.05;2.47;;;;;;;14.12;73.38;102084.91;5071083;28;20017;-78
2022/06/28 05:59:14;;;;;;;5.47;2.47;;;;;;;14.14;72.89;102087.50;5064776;28;20464;-77
2022/06/28 06:01:40;;;;;;;4.72;2.60;;;;;;;14.18;72.69;102084.78;5060924;28;20052;-78
2022/06/28 06:04:05;;;;;;;6.88;2.65;;;;;;;14.20;72.39;102080.41;5069439;28;20024;-78
2022/06/28 06:06:30;;;;;;;6.95;2.53;;;;;;;14.23;72.34;102077.72;5069571;28;20024;-78
2022/06/28 06:08:56;;;;;;;6.28;2.90;;;;;;;14.29;72.29;102079.34;5068197;28;20024;-77
2022/06/28 06:11:21;;;;;;;8.80;2.70;;;;;;;14.34;73.62;102087.09;5064522;28;20033;-78
2022/06/28 06:13:47;;;;;;;4.03;2.63;;;;;;;14.38;72.96;102092.22;5066983;28;20024;-77
2022/06/28 06:16:12;;;;;;;6.03;2.60;;;;;;;14.41;71.81;102092.16;5064768;28;20075;-78
2022/06/28 06:18:37;;;;;;;4.75;2.72;;;;;;;14.46;71.98;102093.81;5065149;28;20072;-77
2022/06/28 06:21:02;;;;;;;8.65;2.88;;;;;;;14.49;72.79;102089.38;5063488;28;20024;-78
2022/06/28 06:23:28;;;;;;;5.35;2.33;;;;;;;14.53;71.61;102098.00;5064508;28;20507;-77
2022/06/28 06:25:53;;;;;;;7.88;2.50;;;;;;;14.57;70.72;102097.94;5065905;28;20135;-78
2022/06/28 06:28:19;;;;;;;8.73;2.83;;;;;;;14.60;71.21;102101.38;5064421;28;20050;-78
2022/06/28 06:30:44;;;;;;;6.97;2.58;;;;;;;14.65;72.72;102107.34;5068886;28;20107;-78
2022/06/28 06:33:09;;;;;;;7.07;2.90;;;;;;;14.69;70.91;102111.66;5063548;28;20032;-78
2022/06/28 06:35:34;;;;;;;8.38;2.75;;;;;;;14.74;70.69;102108.94;5062897;28;20025;-77
2022/06/28 06:38:03;;;;;;;10.63;2.80;;;;;;;14.78;70.27;102107.97;5059340;28;20036;-77
2022/06/28 06:40:29;;;;;;;7.60;2.65;;;;;;;14.83;71.18;102106.13;5060094;28;20016;-77
2022/06/28 06:42:54;;;;;;;7.47;2.88;;;;;;;14.87;69.96;102108.63;5067253;28;20033;-78
2022/06/28 06:45:20;;;;;;;5.28;2.67;;;;;;;14.91;69.85;102109.41;5065694;28;20069;-77
2022/06/28 06:47:45;;;;;;;8.40;2.80;;;;;;;14.96;70.24;102104.91;5063029;28;20032;-77
2022/06/28 06:50:10;;;;;;;9.90;2.90;;;;;;;15.00;69.50;102111.81;5062474;28;20028;-78
2022/06/28 06:52:36;;;;;;;7.90;2.83;;;;;;;15.05;71.50;102110.81;5065572;28;20037;-77
2022/06/28 06:55:02;;;;;;;8.55;2.60;;;;;;;15.10;70.88;102117.69;5068121;28;20758;-77
2022/06/28 06:57:28;;;;;;;7.68;2.90;;;;;;;15.14;69.77;102111.47;5063366;28;20313;-77
2022/06/28 06:59:54;;;;;;;7.43;3.20;;;;;;;15.16;69.29;102114.91;5057375;28;20470;-78
2022/06/28 07:02:19;;;;;;;6.80;2.40;;;;;;;15.21;69.58;102121.81;5060494;28;20108;-77
2022/06/28 07:04:45;;;;;;;7.00;2.10;;;;;;;15.24;67.46;102122.59;5062749;28;20021;-77
2022/06/28 07:07:10;;;;;;;5.85;2.20;;;;;;;15.28;67.43;102120.78;5060316;28;20360;-78
2022/06/28 07:09:35;;;;;;;8.00;2.10;;;;;;;15.30;66.84;102127.69;5064684;28;20032;-78
2022/06/28 07:12:01;;;;;;;5.60;1.70;;;;;;;15.35;67.42;102122.31;5056799;28;20154;-78
2022/06/28 07:14:26;;;;;;;6.75;1.90;;;;;;;15.39;66.70;102125.72;5062579;28;21248;-77
2022/06/28 07:16:51;;;;;;;7.57;1.67;;;;;;;15.42;65.76;102126.53;5070281;28;20020;-77
2022/06/28 07:19:17;;;;;;;5.25;1.45;;;;;;;15.45;64.31;102126.44;5062928;28;20048;-77
2022/06/28 07:21:44;;;;;;;5.65;1.40;;;;;;;15.49;64.70;102129.84;5052907;28;20021;-77
2022/06/28 07:24:09;;;;;;;6.00;1.80;;;;;;;15.54;64.00;102127.94;5055066;28;20043;-78
2022/06/28 07:26:37;;;;;;;7.05;1.40;;;;;;;15.60;64.75;102130.41;5058729;28;20040;-77
2022/06/28 07:29:04;;;;;;;4.75;1.50;;;;;;;15.63;63.56;102125.09;5055744;28;20124;-78
2022/06/28 07:31:30;;;;;;;6.82;1.38;;;;;;;15.67;64.87;102127.63;5056457;28;20071;-77
2022/06/28 07:33:57;;;;;;;3.45;1.13;;;;;;;15.71;64.83;102121.41;5055165;28;20108;-78
2022/06/28 07:36:22;;;;;;;4.30;1.40;;;;;;;15.75;63.85;102125.66;5052468;28;20029;-77
2022/06/28 07:38:47;;;;;;;3.67;1.10;;;;;;;15.80;64.07;102125.56;5057432;28;20035;-77
2022/06/28 07:41:12;;;;;;;3.00;1.17;;;;;;;15.80;64.88;102123.78;5063799;28;20086;-77
2022/06/28 07:43:38;;;;;;;5.47;1.27;;;;;;;15.83;64.35;102126.31;5059978;28;20039;-78
2022/06/28 07:46:03;;;;;;;6.68;1.33;;;;;;;15.87;63.81;102125.38;5064483;28;20101;-77
2022/06/28 07:48:28;;;;;;;5.25;1.30;;;;;;;15.90;64.86;102121.78;5060721;28;20032;-77
2022/06/28 07:53:37;;;;;;;7.68;1.42;;;;;;;15.97;62.38;102112.84;5061604;28;20047;-78
2022/06/28 07:56:03;;;;;;;3.28;1.00;;;;;;;16.02;63.67;102129.31;5062934;28;20024;-77
2022/06/28 07:58:28;;;;;;;5.63;1.30;;;;;;;16.05;61.53;102131.88;5056675;28;20044;-78
2022/06/28 08:00:54;;;;;;;5.75;1.20;;;;;;;16.09;62.55;102124.75;5055845;28;20064;-77
2022/06/28 08:03:19;;;;;;;7.90;1.15;;;;;;;16.13;62.04;102115.06;5060317;28;20381;-78
2022/06/28 08:05:44;;;;;;;3.05;1.17;;;;;;;16.18;62.43;102113.13;5066600;28;20391;-77
2022/06/28 08:08:10;;;;;;;4.25;1.23;;;;;;;16.22;62.99;102115.66;5060602;28;20036;-78
2022/06/28 08:10:35;;;;;;;4.00;1.35;;;;;;;16.27;62.00;102112.00;5060179;28;20460;-77
2022/06/28 08:13:00;;;;;;;5.00;1.25;;;;;;;16.30;62.30;102109.28;5062342;28;20610;-78
2022/06/28 08:15:26;;;;;;;7.65;1.40;;;;;;;16.33;61.56;102106.59;5060298;28;20498;-78
2022/06/28 08:17:51;;;;;;;5.47;1.10;;;;;;;16.37;60.74;102106.44;5059924;28;20105;-78
2022/06/28 08:20:17;;;;;;;5.85;1.10;;;;;;;16.41;60.80;102107.19;5060016;28;20857;-78
2022/06/28 08:22:43;;;;;;;4.57;1.23;;;;;;;16.45;61.57;102113.25;5059140;28;20052;-78
2022/06/28 08:25:08;;;;;;;6.03;1.02;;;;;;;16.47;58.84;102107.03;5062440;28;20028;-77
2022/06/28 08:27:34;;;;;;;4.18;1.00;;;;;;;16.51;58.45;102106.03;5060353;28;20107;-77
2022/06/28 08:30:00;;;;;;;4.45;1.10;;;;;;;16.57;59.94;102098.88;5060163;28;20028;-77
2022/06/28 08:32:25;;;;;;;3.83;1.02;;;;;;;16.59;58.11;102097.03;5056739;28;20380;-77
2022/06/28 08:34:51;;;;;;;6.57;1.08;;;;;;;16.64;59.42;102093.38;5060898;28;20464;-77
2022/06/28 08:37:16;;;;;;;4.68;1.00;;;;;;;16.67;59.11;102090.63;5060207;28;20043;-77
2022/06/28 08:39:42;;;;;;;3.33;0.90;;;;;;;16.71;58.26;102091.41;5062075;28;20024;-77
2022/06/28 08:42:10;;;;;;;4.05;0.80;;;;;;;16.74;57.11;102086.03;5065110;28;20044;-78
2022/06/28 08:44:36;;;;;;;4.35;0.80;;;;;;;16.78;56.35;102092.91;5061398;28;20036;-77
2022/06/28 08:47:03;;;;;;;8.68;1.08;;;;;;;16.81;56.54;102084.94;5063505;28;20032;-78
2022/06/28 08:49:53;;;;;;;3.90;1.00;;;;;;;16.89;59.15;102078.59;5067986;28;20082;-77
2022/06/28 08:52:21;;;;;;;3.92;0.80;;;;;;;16.94;56.30;102081.91;5059635;28;20063;-78
2022/06/28 08:54:48;;;;;;;3.47;0.90;;;;;;;16.96;54.75;102078.38;5051350;28;20081;-78
2022/06/28 08:57:13;;;;;;;3.92;0.95;;;;;;;16.98;55.22;102073.06;5053130;28;20040;-77
2022/06/28 08:59:40;;;;;;;3.40;0.98;;;;;;;17.03;58.39;102072.91;5061822;28;20036;-78
2022/06/28 09:02:06;;;;;;;2.53;0.90;;;;;;;17.06;55.04;102078.06;5053888;28;20039;-78
2022/06/28 09:04:32;;;;;;;4.05;0.80;;;;;;;17.11;57.25;102078.78;5059999;28;20032;-76
2022/06/28 09:06:58;;;;;;;3.10;0.80;;;;;;;17.16;57.29;102070.72;5060669;28;20102;-78
2022/06/28 09:09:23;;;;;;;3.47;0.80;;;;;;;17.21;56.56;102074.06;5065296;28;20155;-77
2022/06/28 09:11:49;;;;;;;6.13;0.90;;;;;;;17.28;56.86;102083.44;5054607;28;20017;-77
2022/06/28 09:14:33;;;;;;;5.32;0.80;;;;;;;17.32;57.81;102071.91;5059098;28;20441;-77
2022/06/28 09:17:18;;;;;;;2.33;0.80;;;;;;;17.38;57.50;102068.22;5057388;28;20058;-78
2022/06/28 09:19:43;;;;;;;3.60;0.77;;;;;;;17.40;57.01;102063.75;5060721;28;20056;-77
2022/06/28 09:22:08;;;;;;;4.50;0.90;;;;;;;17.43;57.49;102056.59;5066444;28;20024;-78
2022/06/28 09:24:35;;;;;;;4.35;0.90;;;;;;;17.45;56.44;102062.69;5059331;28;20036;-77
2022/06/28 09:27:04;;;;;;;3.55;0.90;;;;;;;17.48;55.72;102055.59;5055791;28;20704;-78
2022/06/28 09:29:44;;;;;;;4.43;1.10;;;;;;;17.51;56.39;102055.47;5065384;28;20028;-77
2022/06/28 09:32:10;;;;;;;2.42;0.75;;;;;;;17.56;56.70;102053.56;5061845;28;20028;-77
2022/06/28 09:34:39;;;;;;;2.35;0.70;;;;;;;17.62;57.03;102055.09;5057441;28;20068;-78
2022/06/28 09:37:06;;;;;;;4.15;0.70;;;;;;;17.66;55.71;102049.66;5056472;28;20052;-78
2022/06/28 09:39:31;;;;;;;3.03;0.60;;;;;;;17.69;56.90;102044.31;5054046;28;20028;-79
2022/06/28 09:41:57;;;;;;;3.35;0.93;;;;;;;17.75;58.15;102056.38;5055528;28;20349;-78
2022/06/28 09:44:29;;;;;;;3.08;0.93;;;;;;;17.78;55.37;102052.75;5058268;28;20058;-78
2022/06/28 09:46:57;;;;;;;3.78;1.00;;;;;;;17.81;54.01;102043.00;5060902;28;20356;-78
2022/06/28 09:49:28;;;;;;;4.15;0.90;;;;;;;17.84;54.78;102042.88;5059845;28;20021;-78
2022/06/28 09:51:55;;;;;;;;;;;;;;;17.91;57.28;102032.97;5064749;28;20506;-78
2022/06/28 09:54:25;;;;;;;3.08;0.65;;;;;;;17.95;57.10;102029.28;5064819;28;20351;-77
2022/06/28 09:56:54;;;;;;;2.97;0.70;;;;;;;18.00;54.76;102027.38;5065382;28;20036;-77
2022/06/28 09:59:21;;;;;;;3.45;0.65;;;;;;;18.05;54.71;102035.09;5068210;28;20427;-79
2022/06/28 10:01:48;;;;;;;2.80;0.70;;;;;;;18.10;54.90;102027.06;5064083;28;20484;-78
2022/06/28 10:04:14;;;;;;;5.00;0.80;;;;;;;18.13;52.97;102024.28;5060060;28;20123;-77
2022/06/28 10:06:39;;;;;;;3.72;0.90;;;;;;;18.16;52.99;102026.78;5063452;28;20032;-78
2022/06/28 10:09:06;;;;;;;3.45;0.70;;;;;;;18.18;55.18;102030.22;5059803;28;20395;-79
2022/06/28 10:15:01;;;;;;;3.70;0.80;;;;;;;18.22;55.08;102034.47;5063305;28;20036;-77
2022/06/28 10:17:34;;;;;;;3.28;0.80;;;;;;;18.31;56.51;102020.06;5063618;28;20752;-78
2022/06/28 10:20:01;;;;;;;2.58;0.70;;;;;;;18.35;55.41;102022.53;5064321;28;20048;-77
2022/06/28 10:22:27;;;;;;;2.67;0.80;;;;;;;18.37;54.16;102018.97;5059594;28;20036;-78
2022/06/28 10:24:53;;;;;;;4.80;0.98;;;;;;;18.40;52.89;102024.13;5057157;28;20032;-78
2022/06/28 10:27:20;;;;;;;2.45;0.65;;;;;;;18.40;52.54;102011.78;5060597;28;20043;-78
2022/06/28 10:30:25;;;;;;;3.17;0.70;;;;;;;18.45;55.07;102008.97;5062847;28;20032;-78
2022/06/28 10:32:55;;;;;;;2.20;0.60;;;;;;;18.48;53.96;102006.22;5064263;28;20048;-78
2022/06/28 10:35:29;;;;;;;4.45;0.70;;;;;;;18.52;55.51;102005.16;5063483;28;20108;-78
2022/06/28 10:38:09;;;;;;;2.85;1.02;;;;;;;18.56;54.20;102003.25;5061395;28;20164;-78
2022/06/28 10:40:39;;;;;;;3.38;0.85;;;;;;;18.61;56.01;101996.91;5064722;28;20027;-78
2022/06/28 10:43:04;;;;;;;2.28;0.95;;;;;;;18.68;56.89;101997.50;5065010;28;20035;-78
2022/06/28 10:46:04;;;;;;;2.55;0.90;;;;;;;18.75;56.45;101987.56;5058337;28;20029;-78
2022/06/28 10:48:31;;;;;;;3.95;0.88;;;;;;;18.80;53.38;101991.72;5056922;28;20435;-78
2022/06/28 10:50:58;;;;;;;1.95;0.70;;;;;;;18.88;53.81;101987.88;5058043;28;20033;-78
2022/06/28 10:53:27;;;;;;;1.67;0.70;;;;;;;18.93;56.08;101989.41;5062075;28;20369;-78
2022/06/28 10:56:14;;;;;;;1.30;0.70;;;;;;;18.99;55.34;101979.53;5058446;28;20028;-78
2022/06/28 10:58:59;;;;;;;2.35;0.70;;;;;;;19.05;55.91;101966.94;5059035;28;20784;-78
2022/06/28 11:01:39;;;;;;;3.50;0.80;;;;;;;19.10;55.08;101970.25;5062212;28;20397;-78
2022/06/28 11:04:20;;;;;;;2.33;0.70;;;;;;;19.16;54.79;101971.75;5064864;28;20040;-78
2022/06/28 11:06:57;;;;;;;3.22;0.77;;;;;;;19.21;54.08;101969.78;5060212;28;20028;-78
2022/06/28 11:10:00;;;;;;;2.60;0.88;;;;;;;19.28;54.02;101969.50;5053309;28;20024;-78
2022/06/28 11:12:28;;;;;;;3.30;0.73;;;;;;;19.32;53.25;101965.78;5067124;28;20734;-78
2022/06/28 11:14:58;;;;;;;3.22;0.68;;;;;;;19.37;52.04;101964.69;5062967;28;20032;-78
2022/06/28 11:17:30;;;;;;;5.28;0.82;;;;;;;19.44;53.35;101959.09;5059230;28;20031;-78
2022/06/28 11:20:00;;;;;;;1.88;0.80;;;;;;;19.47;51.56;101948.41;5058117;28;20040;-78
2022/06/28 11:22:30;;;;;;;4.10;0.70;;;;;;;19.50;52.13;101943.84;5058817;28;20392;-78
2022/06/28 11:24:58;;;;;;;2.17;0.70;;;;;;;19.58;54.72;101950.56;5063732;28;20498;-78
2022/06/28 11:27:24;;;;;;;1.55;0.70;;;;;;;19.64;52.32;101952.94;5063730;28;20039;-78
2022/06/28 11:30:02;;;;;;;1.55;0.77;;;;;;;19.71;52.90;101952.56;5064460;28;20029;-78
2022/06/28 11:32:33;;;;;;;2.88;0.70;;;;;;;19.71;50.46;101946.44;5058668;28;20127;-78
2022/06/28 11:35:04;;;;;;;2.20;0.85;;;;;;;19.74;51.86;101935.72;5060906;28;20040;-78